createdAt,value
2022-10-04T00:02:34.280Z,100.00
2022-10-04T00:05:15.073Z,100.00
2022-10-04T00:07:58.981Z,100.00
2022-10-04T00:10:34.508Z,100.00
2022-10-04T00:13:07.740Z,100.00
2022-10-04T00:15:37.886Z,100.00
2022-10-04T00:18:10.822Z,100.00
2022-10-04T00:20:55.695Z,100.00
2022-10-04T00:23:25.663Z,100.00
2022-10-04T00:26:06.499Z,100.00
2022-10-04T00:28:45.916Z,100.00
2022-10-04T00:31:22.460Z,100.00
2022-10-04T00:34:03.715Z,100.00
2022-10-04T00:36:55.152Z,100.00
2022-10-04T00:39:37.608Z,100.00
2022-10-04T00:42:33.266Z,100.00
2022-10-04T00:45:16.046Z,100.00
2022-10-04T00:47:49.207Z,100.00
2022-10-04T00:50:44.908Z,100.00
2022-10-04T00:53:41.775Z,100.00
2022-10-04T00:56:34.727Z,100.00
2022-10-04T00:59:46.628Z,100.00
2022-10-04T01:02:31.614Z,100.00
2022-10-04T01:05:07.393Z,100.00
2022-10-04T01:07:47.843Z,100.00
2022-10-04T01:10:27.199Z,100.00
2022-10-04T01:13:28.014Z,100.00
2022-10-04T01:16:18.427Z,100.00
2022-10-04T01:18:46.685Z,100.00
2022-10-04T01:21:19.924Z,100.00
2022-10-04T01:23:57.457Z,100.00
2022-10-04T01:26:30.459Z,100.00
2022-10-04T01:29:15.891Z,100.00
2022-10-04T01:31:52.428Z,100.00
2022-10-04T01:34:25.684Z,100.00
2022-10-04T01:36:57.477Z,100.00
2022-10-04T01:39:26.964Z,100.00
2022-10-04T01:42:21.105Z,100.00
2022-10-04T01:45:03.218Z,100.00
2022-10-04T01:47:55.300Z,100.00
2022-10-04T01:51:15.292Z,100.00
2022-10-04T01:53:56.862Z,100.00
2022-10-04T01:56:34.523Z,100.00
2022-10-04T01:59:07.791Z,100.00
2022-10-04T02:01:51.142Z,100.00
2022-10-04T02:04:41.199Z,100.00
2022-10-04T02:07:14.964Z,100.00
2022-10-04T02:09:47.781Z,100.00
2022-10-04T02:12:19.958Z,100.00
2022-10-04T02:14:53.315Z,100.00
2022-10-04T02:17:31.431Z,100.00
2022-10-04T02:20:01.594Z,100.00
2022-10-04T02:22:30.005Z,100.00
2022-10-04T02:24:57.897Z,100.00
2022-10-04T02:27:31.417Z,100.00
2022-10-04T02:30:06.302Z,100.00
2022-10-04T02:32:52.788Z,100.00
2022-10-04T02:35:21.261Z,100.00
2022-10-04T02:37:59.133Z,100.00
2022-10-04T02:40:32.624Z,100.00
2022-10-04T02:43:08.678Z,100.00
2022-10-04T02:46:07.428Z,100.00
2022-10-04T02:48:55.060Z,100.00
2022-10-04T02:51:37.449Z,100.00
2022-10-04T02:54:27.745Z,100.00
2022-10-04T02:56:56.964Z,100.00
2022-10-04T02:59:25.171Z,100.00
2022-10-04T03:02:01.890Z,100.00
2022-10-04T03:04:38.970Z,100.00
2022-10-04T03:07:09.256Z,100.00
2022-10-04T03:09:38.296Z,100.00
2022-10-04T03:12:06.499Z,100.00
2022-10-04T03:14:34.536Z,100.00
2022-10-04T03:17:06.305Z,100.00
2022-10-04T03:19:35.553Z,100.00
2022-10-04T03:22:12.176Z,100.00
2022-10-04T03:24:56.174Z,100.00
2022-10-04T03:27:31.500Z,100.00
2022-10-04T03:29:59.668Z,100.00
2022-10-04T03:32:30.603Z,100.00
2022-10-04T03:35:02.587Z,100.00
2022-10-04T03:37:35.253Z,100.00
2022-10-04T03:40:04.168Z,100.00
2022-10-04T03:42:36.324Z,100.00
2022-10-04T03:45:18.541Z,100.00
2022-10-04T03:47:50.575Z,100.00
2022-10-04T03:50:26.989Z,100.00
2022-10-04T03:52:59.036Z,100.00
2022-10-04T03:55:34.785Z,100.00
2022-10-04T03:58:02.886Z,100.00
2022-10-04T04:00:30.394Z,100.00
2022-10-04T04:03:03.007Z,100.00
2022-10-04T04:05:54.242Z,100.00
2022-10-04T04:08:33.535Z,100.00
2022-10-04T04:11:05.945Z,100.00
2022-10-04T04:14:14.141Z,100.00
2022-10-04T04:16:41.724Z,100.00
2022-10-04T04:19:16.727Z,100.00
2022-10-04T04:21:44.591Z,100.00
2022-10-04T04:24:32.334Z,100.00
2022-10-04T04:27:05.421Z,100.00
2022-10-04T04:29:53.385Z,100.00
2022-10-04T04:32:25.885Z,100.00
2022-10-04T04:35:07.249Z,100.00
2022-10-04T04:37:38.930Z,100.00
2022-10-04T04:40:25.176Z,100.00
2022-10-04T04:42:53.280Z,100.00
2022-10-04T04:45:29.737Z,100.00
2022-10-04T04:47:58.736Z,100.00
2022-10-04T04:50:35.025Z,100.00
2022-10-04T04:53:38.275Z,100.00
2022-10-04T04:56:10.603Z,100.00
2022-10-04T04:58:46.692Z,100.00
2022-10-04T05:01:26.859Z,100.00
2022-10-04T05:04:23.777Z,100.00
2022-10-04T05:07:06.616Z,100.00
2022-10-04T05:09:41.422Z,100.00
2022-10-04T05:12:21.640Z,100.00
2022-10-04T05:14:53.126Z,100.00
2022-10-04T05:17:25.158Z,100.00
2022-10-04T05:19:57.931Z,100.00
2022-10-04T05:22:27.042Z,100.00
2022-10-04T05:25:09.289Z,100.00
2022-10-04T05:27:40.394Z,100.00
2022-10-04T05:30:32.432Z,100.00
2022-10-04T05:33:41.226Z,100.00
2022-10-04T05:36:11.154Z,100.00
2022-10-04T05:39:28.327Z,100.00
2022-10-04T05:42:37.283Z,100.00
2022-10-04T05:45:25.210Z,100.00
2022-10-04T05:47:55.955Z,100.00
2022-10-04T05:50:42.044Z,100.00
2022-10-04T05:53:42.226Z,100.00
2022-10-04T05:57:04.138Z,100.00
2022-10-04T06:00:03.353Z,100.00
2022-10-04T06:02:51.419Z,100.00
2022-10-04T06:05:35.000Z,100.00
2022-10-04T06:08:24.780Z,100.00
2022-10-04T06:11:33.490Z,100.00
2022-10-04T06:14:58.654Z,100.00
2022-10-04T06:17:45.039Z,100.00
2022-10-04T06:20:35.522Z,100.00
2022-10-04T06:23:11.961Z,100.00
2022-10-04T06:26:02.993Z,100.00
2022-10-04T06:28:35.950Z,100.00
2022-10-04T06:31:36.130Z,100.00
2022-10-04T06:35:07.020Z,100.00
2022-10-04T06:38:00.296Z,100.00
2022-10-04T06:40:55.104Z,100.00
2022-10-04T06:43:56.871Z,100.00
2022-10-04T06:47:04.256Z,100.00
2022-10-04T06:50:44.135Z,100.00
2022-10-04T06:53:32.296Z,100.00
2022-10-04T06:56:49.996Z,100.00
2022-10-04T06:59:38.078Z,100.00
2022-10-04T07:02:36.426Z,100.00
2022-10-04T07:05:33.342Z,100.00
2022-10-04T07:08:35.649Z,100.00
2022-10-04T07:11:53.679Z,100.00
2022-10-04T07:14:37.729Z,100.00
2022-10-04T07:17:20.033Z,100.00
2022-10-04T07:19:50.359Z,100.00
2022-10-04T07:22:38.269Z,100.00
2022-10-04T07:25:14.864Z,100.00
2022-10-04T07:28:27.608Z,100.00
2022-10-04T07:31:13.309Z,95.93
2022-10-04T07:33:54.203Z,95.52
2022-10-04T07:36:47.360Z,94.71
2022-10-04T07:39:17.095Z,89.04
2022-10-04T07:41:56.404Z,64.27
2022-10-04T07:44:43.073Z,56.94
2022-10-04T07:47:23.146Z,61.00
2022-10-04T07:49:50.651Z,59.45
2022-10-04T07:52:32.893Z,57.41
2022-10-04T07:55:13.862Z,49.83
2022-10-04T07:58:14.973Z,55.82
2022-10-04T08:01:13.983Z,64.43
2022-10-04T08:04:30.382Z,71.31
2022-10-04T08:07:05.513Z,81.78
2022-10-04T08:10:14.582Z,96.44
2022-10-04T08:13:00.461Z,100.00
2022-10-04T08:15:40.999Z,100.00
2022-10-04T08:18:41.525Z,100.00
2022-10-04T08:21:16.173Z,100.00
2022-10-04T08:24:16.785Z,100.00
2022-10-04T08:27:08.991Z,100.00
2022-10-04T08:30:12.412Z,100.00
2022-10-04T08:33:12.330Z,100.00
2022-10-04T08:35:52.593Z,99.34
2022-10-04T08:38:59.333Z,100.00
2022-10-04T08:41:54.174Z,89.49
2022-10-04T08:45:16.882Z,60.20
2022-10-04T08:47:49.832Z,48.39
2022-10-04T08:51:05.643Z,51.83
2022-10-04T08:54:04.022Z,59.91
2022-10-04T08:57:06.211Z,63.18
2022-10-04T08:59:54.714Z,70.95
2022-10-04T09:02:55.599Z,76.42
2022-10-04T09:06:13.342Z,69.18
2022-10-04T09:08:55.489Z,52.97
2022-10-04T09:11:51.058Z,43.16
2022-10-04T09:15:05.277Z,40.70
2022-10-04T09:17:41.146Z,46.96
2022-10-04T09:21:08.433Z,50.41
2022-10-04T09:24:12.410Z,49.84
2022-10-04T09:26:59.466Z,44.75
2022-10-04T09:29:49.653Z,37.58
2022-10-04T09:33:01.630Z,31.43
2022-10-04T09:35:53.877Z,31.08
2022-10-04T09:38:42.633Z,32.31
2022-10-04T09:41:47.317Z,31.13
2022-10-04T09:44:46.638Z,37.60
2022-10-04T09:47:16.969Z,45.48
2022-10-04T09:50:24.319Z,52.20
2022-10-04T09:53:00.520Z,60.79
2022-10-04T09:56:14.685Z,69.05
2022-10-04T09:59:22.191Z,72.96
2022-10-04T10:02:01.105Z,64.33
2022-10-04T10:05:07.333Z,47.27
2022-10-04T10:07:43.310Z,38.37
2022-10-04T10:10:48.367Z,32.66
2022-10-04T10:13:45.627Z,30.28
2022-10-04T10:16:40.962Z,33.84
2022-10-04T10:19:45.945Z,36.61
2022-10-04T10:23:00.694Z,44.19
2022-10-04T10:25:55.167Z,52.26
2022-10-04T10:28:29.184Z,57.27
2022-10-04T10:31:47.722Z,45.53
2022-10-04T10:34:36.625Z,36.60
2022-10-04T10:37:12.466Z,32.08
2022-10-04T10:40:07.670Z,32.32
2022-10-04T10:42:51.204Z,30.99
2022-10-04T10:45:53.271Z,29.83
2022-10-04T10:49:09.425Z,34.73
2022-10-04T10:52:17.999Z,38.56
2022-10-04T10:55:34.702Z,41.14
2022-10-04T10:58:42.077Z,40.65
2022-10-04T11:01:53.556Z,35.20
2022-10-04T11:04:51.538Z,30.96
2022-10-04T11:08:30.099Z,30.89
2022-10-04T11:11:15.548Z,31.09
2022-10-04T11:14:33.313Z,30.39
2022-10-04T11:17:50.241Z,29.07
2022-10-04T11:21:13.954Z,30.32
2022-10-04T11:24:14.236Z,28.88
2022-10-04T11:27:10.995Z,27.44
2022-10-04T11:30:13.955Z,27.96
2022-10-04T11:33:07.983Z,28.39
2022-10-04T11:35:39.398Z,27.32
2022-10-04T11:38:48.917Z,27.20
2022-10-04T11:41:36.219Z,28.11
2022-10-04T11:44:26.686Z,30.79
2022-10-04T11:47:16.070Z,29.78
2022-10-04T11:50:03.195Z,29.72
2022-10-04T11:53:03.366Z,32.11
2022-10-04T11:56:04.118Z,33.21
2022-10-04T11:59:11.475Z,33.49
2022-10-04T12:01:59.911Z,32.89
2022-10-04T12:04:58.291Z,32.21
2022-10-04T12:07:40.177Z,31.69
2022-10-04T12:10:40.143Z,31.80
2022-10-04T12:13:58.357Z,32.80
2022-10-04T12:16:56.732Z,33.46
2022-10-04T12:19:45.659Z,34.61
2022-10-04T12:22:33.979Z,34.25
2022-10-04T12:25:47.041Z,34.92
2022-10-04T12:28:39.957Z,36.92
2022-10-04T12:31:28.839Z,39.17
2022-10-04T12:34:26.541Z,42.58
2022-10-04T12:37:20.823Z,43.47
2022-10-04T12:40:21.474Z,44.06
2022-10-04T12:43:28.245Z,42.36
2022-10-04T12:46:27.502Z,45.48
2022-10-04T12:49:06.967Z,50.30
2022-10-04T12:52:01.270Z,50.42
2022-10-04T12:54:45.766Z,50.53
2022-10-04T12:57:47.388Z,51.87
2022-10-04T13:00:26.074Z,52.88
2022-10-04T13:03:54.499Z,51.72
2022-10-04T13:07:05.569Z,51.74
2022-10-04T13:10:23.460Z,55.24
2022-10-04T13:13:20.261Z,54.91
2022-10-04T13:19:50.510Z,54.06
2022-10-04T13:22:58.065Z,55.71
2022-10-04T13:26:04.540Z,56.41
2022-10-04T13:29:13.456Z,59.68
2022-10-04T13:32:30.262Z,62.86
2022-10-04T13:35:09.145Z,64.67
2022-10-04T13:38:20.230Z,65.38
2022-10-04T13:41:22.441Z,68.10
2022-10-04T13:44:08.170Z,70.46
2022-10-04T13:47:10.256Z,70.58
2022-10-04T13:50:23.102Z,69.28
2022-10-04T13:53:51.825Z,70.28
2022-10-04T13:56:43.820Z,67.81
2022-10-04T13:59:52.464Z,66.46
2022-10-04T14:03:02.935Z,66.91
2022-10-04T14:06:03.940Z,67.53
2022-10-04T14:09:07.795Z,68.04
2022-10-04T14:12:13.645Z,71.22
2022-10-04T14:15:12.224Z,71.50
2022-10-04T14:18:10.551Z,72.69
2022-10-04T14:20:59.840Z,74.57
2022-10-04T14:23:44.600Z,74.85
2022-10-04T14:26:51.299Z,76.05
2022-10-04T14:30:08.254Z,79.48
2022-10-04T14:33:12.615Z,80.91
2022-10-04T14:35:44.556Z,80.88
2022-10-04T14:38:48.206Z,85.91
2022-10-04T14:41:45.276Z,88.42
2022-10-04T14:44:56.405Z,85.14
2022-10-04T14:48:12.513Z,84.59
2022-10-04T14:51:30.032Z,86.29
2022-10-04T14:54:26.300Z,85.92
2022-10-04T14:56:59.330Z,86.75
2022-10-04T14:59:51.001Z,89.96
2022-10-04T15:02:31.316Z,86.01
2022-10-04T15:05:19.435Z,87.72
2022-10-04T15:07:56.142Z,81.05
2022-10-04T15:10:37.194Z,82.50
2022-10-04T15:13:47.172Z,88.67
2022-10-04T15:16:29.181Z,85.81
2022-10-04T15:19:19.726Z,86.19
2022-10-04T15:21:50.521Z,94.21
2022-10-04T15:24:25.675Z,99.70
2022-10-04T15:27:35.560Z,99.41
2022-10-04T15:30:10.653Z,100.00
2022-10-04T15:32:55.330Z,100.00
2022-10-04T15:36:02.417Z,100.00
2022-10-04T15:38:53.830Z,100.00
2022-10-04T15:41:48.979Z,100.00
2022-10-04T15:45:18.923Z,100.00
2022-10-04T15:48:21.698Z,100.00
2022-10-04T15:51:25.669Z,100.00
2022-10-04T15:54:13.605Z,100.00
2022-10-04T15:56:40.733Z,100.00
2022-10-04T15:59:42.246Z,100.00
2022-10-04T16:02:32.000Z,100.00
2022-10-04T16:05:29.688Z,100.00
2022-10-04T16:08:36.346Z,100.00
2022-10-04T16:11:50.930Z,100.00
2022-10-04T16:15:14.118Z,100.00
2022-10-04T16:18:25.266Z,100.00
2022-10-04T16:20:55.560Z,100.00
2022-10-04T16:23:35.671Z,100.00
2022-10-04T16:26:17.036Z,100.00
2022-10-04T16:28:47.041Z,100.00
2022-10-04T16:31:21.606Z,100.00
2022-10-04T16:34:28.216Z,100.00
2022-10-04T16:36:59.819Z,100.00
2022-10-04T16:40:00.290Z,100.00
2022-10-04T16:43:04.719Z,100.00
2022-10-04T16:46:07.128Z,100.00
2022-10-04T16:49:02.373Z,100.00
2022-10-04T16:52:19.278Z,100.00
2022-10-04T16:54:59.757Z,100.00
2022-10-04T16:57:27.993Z,100.00
2022-10-04T16:59:57.601Z,100.00
2022-10-04T17:03:10.375Z,100.00
2022-10-04T17:06:25.648Z,100.00
2022-10-04T17:09:18.972Z,100.00
2022-10-04T17:12:25.679Z,100.00
2022-10-04T17:15:14.405Z,100.00
2022-10-04T17:18:13.207Z,100.00
2022-10-04T17:20:43.464Z,100.00
2022-10-04T17:23:44.485Z,100.00
2022-10-04T17:26:47.274Z,100.00
2022-10-04T17:29:29.250Z,100.00
2022-10-04T17:32:17.478Z,100.00
2022-10-04T17:34:57.500Z,100.00
2022-10-04T17:37:47.197Z,100.00
2022-10-04T17:40:17.189Z,100.00
2022-10-04T17:43:25.557Z,100.00
2022-10-04T17:46:24.048Z,100.00
2022-10-04T17:49:30.517Z,100.00
2022-10-04T17:52:24.416Z,100.00
2022-10-04T17:55:16.220Z,100.00
2022-10-04T17:58:11.440Z,100.00
2022-10-04T18:01:26.683Z,100.00
2022-10-04T18:04:12.312Z,100.00
2022-10-04T18:06:51.275Z,100.00
2022-10-04T18:09:43.504Z,100.00
2022-10-04T18:12:46.989Z,100.00
2022-10-04T18:16:01.680Z,100.00
2022-10-04T18:18:38.367Z,100.00
2022-10-04T18:21:20.319Z,100.00
2022-10-04T18:23:57.247Z,100.00
2022-10-04T18:26:32.401Z,100.00
2022-10-04T18:29:01.809Z,100.00
2022-10-04T18:31:41.513Z,100.00
2022-10-04T18:34:30.402Z,100.00
2022-10-04T18:37:20.332Z,100.00
2022-10-04T18:39:53.223Z,100.00
2022-10-04T18:42:37.531Z,100.00
2022-10-04T18:45:30.259Z,100.00
2022-10-04T18:48:02.101Z,100.00
2022-10-04T18:50:43.683Z,100.00
2022-10-04T18:53:36.049Z,100.00
2022-10-04T18:56:10.052Z,100.00
2022-10-04T18:59:32.539Z,100.00
2022-10-04T19:02:34.904Z,100.00
2022-10-04T19:05:28.927Z,100.00
2022-10-04T19:08:00.434Z,100.00
2022-10-04T19:10:39.118Z,100.00
2022-10-04T19:13:29.270Z,100.00
2022-10-04T19:16:45.778Z,100.00
2022-10-04T19:19:40.874Z,100.00
2022-10-04T19:22:43.427Z,100.00
2022-10-04T19:25:24.229Z,100.00
2022-10-04T19:28:20.878Z,100.00
2022-10-04T19:31:29.299Z,100.00
2022-10-04T19:34:18.143Z,100.00
2022-10-04T19:37:09.310Z,100.00
2022-10-04T19:39:58.285Z,100.00
2022-10-04T19:43:18.964Z,100.00
2022-10-04T19:46:11.746Z,100.00
2022-10-04T19:48:51.057Z,100.00
2022-10-04T19:51:51.098Z,100.00
2022-10-04T19:54:39.674Z,100.00
2022-10-04T19:57:15.018Z,100.00
2022-10-04T19:59:45.981Z,100.00
2022-10-04T20:02:17.478Z,100.00
2022-10-04T20:04:48.946Z,100.00
2022-10-04T20:07:28.428Z,100.00
2022-10-04T20:10:25.701Z,100.00
2022-10-04T20:13:13.587Z,100.00
2022-10-04T20:15:42.986Z,100.00
2022-10-04T20:18:32.089Z,100.00
2022-10-04T20:21:00.239Z,100.00
2022-10-04T20:23:39.436Z,100.00
2022-10-04T20:26:55.504Z,100.00
2022-10-04T20:29:38.193Z,100.00
2022-10-04T20:32:08.568Z,100.00
2022-10-04T20:34:38.969Z,100.00
2022-10-04T20:37:10.982Z,100.00
2022-10-04T20:39:42.007Z,100.00
2022-10-04T20:42:19.794Z,100.00
2022-10-04T20:45:22.197Z,100.00
2022-10-04T20:47:57.531Z,100.00
2022-10-04T20:50:42.271Z,100.00
2022-10-04T20:53:23.064Z,100.00
2022-10-04T20:55:57.258Z,100.00
2022-10-04T20:58:35.613Z,100.00
2022-10-04T21:01:26.783Z,100.00
2022-10-04T21:03:54.262Z,100.00
2022-10-04T21:06:21.523Z,100.00
2022-10-04T21:08:48.807Z,100.00
2022-10-04T21:11:22.264Z,100.00
2022-10-04T21:13:56.506Z,100.00
2022-10-04T21:16:46.031Z,100.00
2022-10-04T21:19:44.661Z,100.00
2022-10-04T21:22:35.918Z,100.00
2022-10-04T21:25:31.585Z,100.00
2022-10-04T21:28:32.596Z,100.00
2022-10-04T21:31:00.532Z,100.00
2022-10-04T21:33:27.857Z,100.00
2022-10-04T21:35:55.220Z,100.00
2022-10-04T21:38:22.528Z,100.00
2022-10-04T21:40:49.763Z,100.00
2022-10-04T21:43:16.986Z,100.00
2022-10-04T21:45:44.378Z,100.00
2022-10-04T21:48:11.632Z,100.00
2022-10-04T21:50:38.941Z,100.00
2022-10-04T21:53:06.200Z,100.00
2022-10-04T21:55:33.426Z,100.00
2022-10-04T21:58:00.740Z,100.00
2022-10-04T22:00:27.953Z,100.00
2022-10-04T22:02:55.261Z,100.00
2022-10-04T22:05:22.500Z,100.00
2022-10-04T22:07:49.926Z,100.00
2022-10-04T22:10:17.845Z,100.00
2022-10-04T22:12:45.202Z,100.00
2022-10-04T22:15:12.563Z,100.00
2022-10-04T22:17:39.858Z,100.00
2022-10-04T22:20:07.584Z,100.00
2022-10-04T22:22:39.624Z,100.00
2022-10-04T22:25:20.858Z,100.00
2022-10-04T22:27:48.659Z,100.00
2022-10-04T22:30:31.342Z,100.00
2022-10-04T22:33:00.770Z,100.00
2022-10-04T22:35:31.876Z,100.00
2022-10-04T22:38:00.300Z,100.00
2022-10-04T22:40:29.191Z,100.00
2022-10-04T22:43:00.928Z,100.00
2022-10-04T22:45:33.463Z,100.00
2022-10-04T22:48:07.927Z,100.00
2022-10-04T22:50:37.380Z,100.00
2022-10-04T22:53:14.293Z,100.00
2022-10-04T22:55:41.896Z,100.00
2022-10-04T22:58:14.567Z,100.00
2022-10-04T23:00:44.029Z,100.00
2022-10-04T23:03:31.966Z,100.00
2022-10-04T23:06:00.836Z,100.00
2022-10-04T23:08:29.420Z,100.00
2022-10-04T23:11:00.774Z,100.00
2022-10-04T23:13:29.163Z,100.00
2022-10-04T23:16:01.966Z,100.00
2022-10-04T23:18:30.981Z,100.00
2022-10-04T23:21:01.165Z,100.00
2022-10-04T23:23:30.710Z,100.00
2022-10-04T23:25:57.920Z,100.00
2022-10-04T23:28:26.902Z,100.00
2022-10-04T23:31:25.864Z,100.00
2022-10-04T23:33:56.870Z,100.00
2022-10-04T23:36:24.522Z,100.00
2022-10-04T23:38:59.079Z,100.00
2022-10-04T23:41:27.045Z,100.00
2022-10-04T23:43:54.217Z,100.00
2022-10-04T23:46:24.441Z,100.00
2022-10-04T23:48:51.781Z,100.00
2022-10-04T23:51:20.123Z,100.00
2022-10-04T23:53:49.854Z,100.00
2022-10-04T23:56:29.366Z,100.00
2022-10-04T23:58:58.875Z,100.00
